createdAt,value
2018-04-20T00:00:20.890Z,21.70
2018-04-20T00:01:20.853Z,21.76
2018-04-20T00:02:20.816Z,21.79
2018-04-20T00:03:20.783Z,21.76
2018-04-20T00:04:20.724Z,21.75
2018-04-20T00:05:20.668Z,21.69
2018-04-20T00:06:20.638Z,21.64
2018-04-20T00:07:20.598Z,21.55
2018-04-20T00:08:20.542Z,21.58
2018-04-20T00:09:20.508Z,21.57
2018-04-20T00:10:20.468Z,21.58
2018-04-20T00:11:20.420Z,21.58
2018-04-20T00:12:20.378Z,21.51
2018-04-20T00:13:20.351Z,21.55
2018-04-20T00:14:20.294Z,21.48
2018-04-20T00:15:20.224Z,21.57
2018-04-20T00:16:20.194Z,21.51
2018-04-20T00:17:20.147Z,21.60
2018-04-20T00:18:20.084Z,21.54
2018-04-20T00:19:20.050Z,21.62
2018-04-20T00:20:20.015Z,21.51
2018-04-20T00:21:19.978Z,21.52
2018-04-20T00:22:19.913Z,21.50
2018-04-20T00:23:19.875Z,21.51
2018-04-20T00:24:19.813Z,21.39
2018-04-20T00:25:19.782Z,21.45
2018-04-20T00:26:19.747Z,21.32
2018-04-20T00:27:19.694Z,21.29
2018-04-20T00:28:19.664Z,21.35
2018-04-20T00:29:19.650Z,21.43
2018-04-20T00:30:19.583Z,21.32
2018-04-20T00:31:19.530Z,21.33
2018-04-20T00:32:19.471Z,21.33
2018-04-20T00:33:19.420Z,21.30
2018-04-20T00:34:19.371Z,21.27
2018-04-20T00:35:19.352Z,21.33
2018-04-20T00:36:19.287Z,21.20
2018-04-20T00:37:19.269Z,21.22
2018-04-20T00:38:19.207Z,21.22
2018-04-20T00:39:19.176Z,21.12
2018-04-20T00:40:19.111Z,21.09
2018-04-20T00:41:19.098Z,21.05
2018-04-20T00:42:19.034Z,20.93
2018-04-20T00:43:18.984Z,20.97
2018-04-20T00:44:18.932Z,20.87
2018-04-20T00:45:18.899Z,20.93
2018-04-20T00:46:18.887Z,20.90
2018-04-20T00:47:18.820Z,20.93
2018-04-20T00:48:18.766Z,20.95
2018-04-20T00:49:18.702Z,20.90
2018-04-20T00:50:18.698Z,20.82
2018-04-20T00:51:18.613Z,20.87
2018-04-20T00:52:18.590Z,20.90
2018-04-20T00:53:18.535Z,20.90
2018-04-20T00:54:18.500Z,20.93
2018-04-20T00:55:18.460Z,20.93
2018-04-20T00:56:18.401Z,20.99
2018-04-20T00:57:18.388Z,20.99
2018-04-20T00:58:18.340Z,21.00
2018-04-20T00:59:18.260Z,20.93
2018-04-20T01:00:18.220Z,20.90
2018-04-20T01:01:18.192Z,20.85
2018-04-20T01:02:18.149Z,20.85
2018-04-20T01:03:18.094Z,20.81
2018-04-20T01:04:18.044Z,20.80
2018-04-20T01:05:17.988Z,20.67
2018-04-20T01:06:17.950Z,20.72
2018-04-20T01:07:17.897Z,20.69
2018-04-20T01:08:17.878Z,20.65
2018-04-20T01:09:17.807Z,20.72
2018-04-20T01:10:17.776Z,20.58
2018-04-20T01:11:17.737Z,20.62
2018-04-20T01:12:17.667Z,20.62
2018-04-20T01:13:17.641Z,20.67
2018-04-20T01:14:17.577Z,20.65
2018-04-20T01:15:17.578Z,20.58
2018-04-20T01:16:17.492Z,20.59
2018-04-20T01:17:17.452Z,20.62
2018-04-20T01:18:17.427Z,20.60
2018-04-20T01:19:17.378Z,20.60
2018-04-20T01:20:17.354Z,20.65
2018-04-20T01:21:17.294Z,20.58
2018-04-20T01:22:17.235Z,20.66
2018-04-20T01:23:17.191Z,20.70
2018-04-20T01:24:17.154Z,20.66
2018-04-20T01:25:17.102Z,20.65
2018-04-20T01:26:17.066Z,20.75
2018-04-20T01:27:17.005Z,20.67
2018-04-20T01:28:17.005Z,20.63
2018-04-20T01:29:16.930Z,20.62
2018-04-20T01:30:16.903Z,20.62
2018-04-20T01:31:16.834Z,20.63
2018-04-20T01:32:16.793Z,20.63
2018-04-20T01:33:16.779Z,20.63
2018-04-20T01:34:16.712Z,20.50
2018-04-20T01:35:16.651Z,20.50
2018-04-20T01:36:17.169Z,20.43
2018-04-20T01:37:16.577Z,20.47
2018-04-20T01:38:17.091Z,20.39
2018-04-20T01:39:17.019Z,20.36
2018-04-20T01:40:16.440Z,20.29
2018-04-20T01:41:16.388Z,20.40
2018-04-20T01:42:16.338Z,20.39
2018-04-20T01:43:16.333Z,20.34
2018-04-20T01:44:16.246Z,20.40
2018-04-20T01:45:16.216Z,20.21
2018-04-20T01:46:16.145Z,20.26
2018-04-20T01:47:16.113Z,20.26
2018-04-20T01:48:16.097Z,20.24
2018-04-20T01:49:16.035Z,20.28
2018-04-20T01:50:15.959Z,20.24
2018-04-20T01:51:15.926Z,20.28
2018-04-20T01:52:15.897Z,20.19
2018-04-20T01:53:15.855Z,20.19
2018-04-20T01:54:16.332Z,20.21
2018-04-20T01:55:15.755Z,20.29
2018-04-20T01:56:15.695Z,20.28
2018-04-20T01:57:15.678Z,20.18
2018-04-20T01:58:15.604Z,20.22
2018-04-20T01:59:15.572Z,20.25
2018-04-20T02:00:15.553Z,20.26
2018-04-20T02:01:15.470Z,20.24
2018-04-20T02:02:15.464Z,20.32
2018-04-20T02:03:15.403Z,20.21
2018-04-20T02:04:15.334Z,20.21
2018-04-20T02:05:15.316Z,20.24
2018-04-20T02:06:15.243Z,20.25
2018-04-20T02:07:15.212Z,20.24
2018-04-20T02:08:15.199Z,20.26
2018-04-20T02:09:15.122Z,20.21
2018-04-20T02:10:15.090Z,20.16
2018-04-20T02:11:15.021Z,20.09
2018-04-20T02:12:14.987Z,20.02
2018-04-20T02:13:14.989Z,20.04
2018-04-20T02:14:14.913Z,19.99
2018-04-20T02:15:14.880Z,20.07
2018-04-20T02:16:14.804Z,20.10
2018-04-20T02:17:14.774Z,19.86
2018-04-20T02:18:14.745Z,19.94
2018-04-20T02:19:14.661Z,19.94
2018-04-20T02:20:15.160Z,19.88
2018-04-20T02:21:14.586Z,19.82
2018-04-20T02:22:14.556Z,19.86
2018-04-20T02:23:14.487Z,19.82
2018-04-20T02:24:14.466Z,19.82
2018-04-20T02:25:14.397Z,19.92
2018-04-20T02:26:14.360Z,19.91
2018-04-20T02:27:14.760Z,19.95
2018-04-20T02:28:14.269Z,19.91
2018-04-20T02:29:14.215Z,19.96
2018-04-20T02:30:14.177Z,19.89
2018-04-20T02:31:14.127Z,19.88
2018-04-20T02:32:14.091Z,19.88
2018-04-20T02:33:14.029Z,19.92
2018-04-20T02:34:14.013Z,19.95
2018-04-20T02:35:13.939Z,19.91
2018-04-20T02:36:13.962Z,20.00
2018-04-20T02:37:13.871Z,20.00
2018-04-20T02:38:13.830Z,20.09
2018-04-20T02:39:13.760Z,20.13
2018-04-20T02:40:13.737Z,20.04
2018-04-20T02:41:13.686Z,20.03
2018-04-20T02:42:13.639Z,20.07
2018-04-20T02:43:13.606Z,19.92
2018-04-20T02:44:13.531Z,19.94
2018-04-20T02:45:13.501Z,19.92
2018-04-20T02:46:13.469Z,19.94
2018-04-20T02:47:13.427Z,19.89
2018-04-20T02:48:13.360Z,20.03
2018-04-20T02:49:13.334Z,19.91
2018-04-20T02:50:13.267Z,19.89
2018-04-20T02:51:13.224Z,19.92
2018-04-20T02:52:13.636Z,19.95
2018-04-20T02:53:13.143Z,19.96
2018-04-20T02:54:13.116Z,19.99
2018-04-20T02:55:13.039Z,19.89
2018-04-20T02:56:13.007Z,19.94
2018-04-20T02:57:12.948Z,19.82
2018-04-20T02:58:12.928Z,19.82
2018-04-20T02:59:12.864Z,19.71
2018-04-20T03:00:12.851Z,19.76
2018-04-20T03:01:12.808Z,19.66
2018-04-20T03:02:12.746Z,19.73
2018-04-20T03:03:12.716Z,19.66
2018-04-20T03:04:12.638Z,19.71
2018-04-20T03:05:12.600Z,19.70
2018-04-20T03:06:12.563Z,19.76
2018-04-20T03:07:12.503Z,19.66
2018-04-20T03:08:12.474Z,19.63
2018-04-20T03:09:12.426Z,19.45
2018-04-20T03:10:12.373Z,19.40
2018-04-20T03:11:12.320Z,19.44
2018-04-20T03:12:12.267Z,19.40
2018-04-20T03:13:12.241Z,19.41
2018-04-20T03:14:12.213Z,19.40
2018-04-20T03:15:12.171Z,19.33
2018-04-20T03:16:12.102Z,19.44
2018-04-20T03:17:12.048Z,19.31
2018-04-20T03:18:12.023Z,19.22
2018-04-20T03:19:11.950Z,19.19
2018-04-20T03:20:11.912Z,19.19
2018-04-20T03:21:11.886Z,19.30
2018-04-20T03:22:11.838Z,19.26
2018-04-20T03:23:11.796Z,19.33
2018-04-20T03:24:11.749Z,19.29
2018-04-20T03:25:11.711Z,19.40
2018-04-20T03:26:12.182Z,19.41
2018-04-20T03:27:11.590Z,19.40
2018-04-20T03:28:12.119Z,19.54
2018-04-20T03:29:11.498Z,19.48
2018-04-20T03:30:11.492Z,19.52
2018-04-20T03:31:11.441Z,19.51
2018-04-20T03:32:11.390Z,19.45
2018-04-20T03:33:11.342Z,19.48
2018-04-20T03:34:11.297Z,19.54
2018-04-20T03:35:11.238Z,19.51
2018-04-20T03:36:11.180Z,19.47
2018-04-20T03:37:11.158Z,19.41
2018-04-20T03:38:11.115Z,19.26
2018-04-20T03:39:11.071Z,19.27
2018-04-20T03:40:11.006Z,19.24
2018-04-20T03:41:10.961Z,19.16
2018-04-20T03:42:10.923Z,19.15
2018-04-20T03:43:10.891Z,19.11
2018-04-20T03:44:10.845Z,19.16
2018-04-20T03:45:10.772Z,19.02
2018-04-20T03:46:10.750Z,18.95
2018-04-20T03:47:11.230Z,19.02
2018-04-20T03:48:10.658Z,19.07
2018-04-20T03:49:10.595Z,18.93
2018-04-20T03:50:10.553Z,19.00
2018-04-20T03:51:10.509Z,18.98
2018-04-20T03:52:10.475Z,19.07
2018-04-20T03:53:10.426Z,19.11
2018-04-20T03:54:10.412Z,19.11
2018-04-20T03:55:10.367Z,18.93
2018-04-20T03:56:10.272Z,19.04
2018-04-20T03:57:10.243Z,19.07
2018-04-20T03:58:10.187Z,19.12
2018-04-20T03:59:10.133Z,18.93
2018-04-20T04:00:10.115Z,18.95
2018-04-20T04:01:10.044Z,19.16
2018-04-20T04:02:10.009Z,19.29
2018-04-20T04:03:10.539Z,19.04
2018-04-20T04:04:09.903Z,19.09
2018-04-20T04:05:09.879Z,19.11
2018-04-20T04:06:09.812Z,19.11
2018-04-20T04:07:09.784Z,18.99
2018-04-20T04:08:09.746Z,18.95
2018-04-20T04:09:09.690Z,18.83
2018-04-20T04:10:09.641Z,18.90
2018-04-20T04:11:10.157Z,18.88
2018-04-20T04:12:09.559Z,18.88
2018-04-20T04:13:09.513Z,18.95
2018-04-20T04:14:09.466Z,18.93
2018-04-20T04:15:09.420Z,18.99
2018-04-20T04:16:09.394Z,19.11
2018-04-20T04:17:09.333Z,19.11
2018-04-20T04:18:09.296Z,19.08
2018-04-20T04:19:09.265Z,19.21
2018-04-20T04:20:09.190Z,19.31
2018-04-20T04:21:09.168Z,19.29
2018-04-20T04:22:09.116Z,19.27
2018-04-20T04:23:09.056Z,19.24
2018-04-20T04:24:08.996Z,19.29
2018-04-20T04:25:08.990Z,19.30
2018-04-20T04:26:09.435Z,19.36
2018-04-20T04:27:08.883Z,19.34
2018-04-20T04:28:08.854Z,19.34
2018-04-20T04:29:09.327Z,19.31
2018-04-20T04:30:08.739Z,19.27
2018-04-20T04:31:08.691Z,19.19
2018-04-20T04:32:08.646Z,19.08
2018-04-20T04:33:08.600Z,19.09
2018-04-20T04:34:08.555Z,19.04
2018-04-20T04:35:08.514Z,18.98
2018-04-20T04:36:08.474Z,18.96
2018-04-20T04:37:08.430Z,18.89
2018-04-20T04:38:08.398Z,18.99
2018-04-20T04:39:08.328Z,18.98
2018-04-20T04:40:08.304Z,18.93
2018-04-20T04:41:08.236Z,18.86
2018-04-20T04:42:08.191Z,18.86
2018-04-20T04:43:08.163Z,18.89
2018-04-20T04:44:08.086Z,18.88
2018-04-20T04:45:08.068Z,18.78
2018-04-20T04:46:08.009Z,18.89
2018-04-20T04:47:07.949Z,18.75
2018-04-20T04:48:07.957Z,18.84
2018-04-20T04:49:07.870Z,18.84
2018-04-20T04:50:07.839Z,18.83
2018-04-20T04:51:07.788Z,18.74
2018-04-20T04:52:07.722Z,18.71
2018-04-20T04:53:07.676Z,18.65
2018-04-20T04:54:07.653Z,18.60
2018-04-20T04:55:07.612Z,18.73
2018-04-20T04:56:07.548Z,18.86
2018-04-20T04:57:07.522Z,18.81
2018-04-20T04:58:07.475Z,18.86
2018-04-20T04:59:07.989Z,18.84
2018-04-20T05:00:07.361Z,18.81
2018-04-20T05:01:07.310Z,18.84
2018-04-20T05:02:07.294Z,18.78
2018-04-20T05:03:07.220Z,18.83
2018-04-20T05:04:07.187Z,18.93
2018-04-20T05:05:07.169Z,18.99
2018-04-20T05:06:07.116Z,19.02
2018-04-20T05:07:07.057Z,19.00
2018-04-20T05:08:07.020Z,19.02
2018-04-20T05:09:06.985Z,19.18
2018-04-20T05:10:06.912Z,19.18
2018-04-20T05:11:06.868Z,19.14
2018-04-20T05:12:06.823Z,19.22
2018-04-20T05:13:06.797Z,19.15
2018-04-20T05:14:06.732Z,19.15
2018-04-20T05:15:06.714Z,18.96
2018-04-20T05:16:06.643Z,18.99
2018-04-20T05:17:06.596Z,19.08
2018-04-20T05:18:06.743Z,19.02
2018-04-20T05:19:06.491Z,19.02
2018-04-20T05:20:06.471Z,19.08
2018-04-20T05:21:06.407Z,18.95
2018-04-20T05:22:06.370Z,18.90
2018-04-20T05:23:06.337Z,18.95
2018-04-20T05:24:06.277Z,18.96
2018-04-20T05:25:06.240Z,18.99
2018-04-20T05:26:06.173Z,18.96
2018-04-20T05:27:06.142Z,18.95
2018-04-20T05:28:06.127Z,18.99
2018-04-20T05:29:06.063Z,18.92
2018-04-20T05:30:05.998Z,18.96
2018-04-20T05:31:05.960Z,18.95
2018-04-20T05:32:05.913Z,18.93
2018-04-20T05:33:05.861Z,18.88
2018-04-20T05:34:05.822Z,18.84
2018-04-20T05:35:05.769Z,18.80
2018-04-20T05:36:05.745Z,18.83
2018-04-20T05:37:05.714Z,18.90
2018-04-20T05:38:05.642Z,18.90
2018-04-20T05:39:05.606Z,18.90
2018-04-20T05:40:05.544Z,18.88
2018-04-20T05:41:05.484Z,18.84
2018-04-20T05:42:05.480Z,18.84
2018-04-20T05:43:05.397Z,18.75
2018-04-20T05:44:05.359Z,18.71
2018-04-20T05:45:05.321Z,18.77
2018-04-20T05:46:05.287Z,18.75
2018-04-20T05:47:05.230Z,18.78
2018-04-20T05:48:05.195Z,18.70
2018-04-20T05:49:05.139Z,18.78
2018-04-20T05:50:05.100Z,18.75
2018-04-20T05:51:05.053Z,18.62
2018-04-20T05:52:05.002Z,18.66
2018-04-20T05:53:04.956Z,18.84
2018-04-20T05:54:04.904Z,18.92
2018-04-20T05:55:04.859Z,18.74
2018-04-20T05:56:04.845Z,18.68
2018-04-20T05:57:04.785Z,18.66
2018-04-20T05:58:04.720Z,18.68
2018-04-20T05:59:04.675Z,18.62
2018-04-20T06:00:04.626Z,18.60
2018-04-20T06:01:04.651Z,18.62
2018-04-20T06:02:04.577Z,18.60
2018-04-20T06:03:04.491Z,18.53
2018-04-20T06:04:04.456Z,18.59
2018-04-20T06:05:04.409Z,18.40
2018-04-20T06:06:04.364Z,18.53
2018-04-20T06:07:04.328Z,18.41
2018-04-20T06:08:04.266Z,18.38
2018-04-20T06:09:04.227Z,18.44
2018-04-20T06:10:04.174Z,18.56
2018-04-20T06:11:04.147Z,18.55
2018-04-20T06:12:04.076Z,18.55
2018-04-20T06:13:04.056Z,18.59
2018-04-20T06:14:04.010Z,18.56
2018-04-20T06:15:03.946Z,18.50
2018-04-20T06:16:03.921Z,18.55
2018-04-20T06:17:03.877Z,18.63
2018-04-20T06:18:03.816Z,18.71
2018-04-20T06:19:03.756Z,18.74
2018-04-20T06:20:03.724Z,18.66
2018-04-20T06:21:03.689Z,18.71
2018-04-20T06:22:03.633Z,18.73
2018-04-20T06:23:03.583Z,18.73
2018-04-20T06:24:03.553Z,18.63
2018-04-20T06:25:03.593Z,18.63
2018-04-20T06:26:03.442Z,18.65
2018-04-20T06:27:03.431Z,18.80
2018-04-20T06:28:03.351Z,18.71
2018-04-20T06:29:03.314Z,18.68
2018-04-20T06:30:03.279Z,18.74
2018-04-20T06:31:03.223Z,18.62
2018-04-20T06:32:03.750Z,18.60
2018-04-20T06:33:03.125Z,18.71
2018-04-20T06:34:03.078Z,18.77
2018-04-20T06:35:03.035Z,18.68
2018-04-20T06:36:03.012Z,18.55
2018-04-20T06:37:02.932Z,18.53
2018-04-20T06:38:02.914Z,18.52
2018-04-20T06:39:02.903Z,18.38
2018-04-20T06:40:02.803Z,18.59
2018-04-20T06:41:02.785Z,18.52
2018-04-20T06:42:02.721Z,18.63
2018-04-20T06:43:02.660Z,18.65
2018-04-20T06:44:02.643Z,18.62
2018-04-20T06:45:02.591Z,18.59
2018-04-20T06:46:02.549Z,18.63
2018-04-20T06:47:02.519Z,18.66
2018-04-20T06:48:02.466Z,18.74
2018-04-20T06:49:02.412Z,18.66
2018-04-20T06:50:02.355Z,18.78
2018-04-20T06:51:02.323Z,18.75
2018-04-20T06:52:02.264Z,18.80
2018-04-20T06:53:02.230Z,18.71
2018-04-20T06:54:02.190Z,18.59
2018-04-20T06:55:02.144Z,18.47
2018-04-20T06:56:02.087Z,18.44
2018-04-20T06:57:02.563Z,18.44
2018-04-20T06:58:02.003Z,18.50
2018-04-20T06:59:01.945Z,18.41
2018-04-20T07:00:01.887Z,18.53
2018-04-20T07:01:01.884Z,18.49
2018-04-20T07:02:01.808Z,18.45
2018-04-20T07:03:01.760Z,18.49
2018-04-20T07:04:01.702Z,18.41
2018-04-20T07:05:01.664Z,18.43
2018-04-20T07:06:01.613Z,18.53
2018-04-20T07:07:01.574Z,18.40
2018-04-20T07:08:01.517Z,18.50
2018-04-20T07:09:01.510Z,18.50
2018-04-20T07:10:01.456Z,18.47
2018-04-20T07:11:01.411Z,18.49
2018-04-20T07:12:01.379Z,18.62
2018-04-20T07:13:01.302Z,18.53
2018-04-20T07:14:01.821Z,18.58
2018-04-20T07:15:01.245Z,18.56
2018-04-20T07:16:01.167Z,18.55
2018-04-20T07:17:01.122Z,18.53
2018-04-20T07:18:01.114Z,18.40
2018-04-20T07:19:01.031Z,18.37
2018-04-20T07:20:01.000Z,18.29
2018-04-20T07:21:00.951Z,18.33
2018-04-20T07:22:00.904Z,18.34
2018-04-20T07:23:00.852Z,18.37
2018-04-20T07:24:00.817Z,18.38
2018-04-20T07:25:00.755Z,18.58
2018-04-20T07:26:00.708Z,18.47
2018-04-20T07:27:00.691Z,18.52
2018-04-20T07:28:00.619Z,18.49
2018-04-20T07:29:00.587Z,18.47
2018-04-20T07:30:00.526Z,18.44
2018-04-20T07:31:00.487Z,18.45
2018-04-20T07:32:00.436Z,18.34
2018-04-20T07:33:00.389Z,18.26
2018-04-20T07:34:00.358Z,18.23
2018-04-20T07:35:00.282Z,18.28
2018-04-20T07:36:00.260Z,18.31
2018-04-20T07:37:00.212Z,18.44
2018-04-20T07:38:00.184Z,18.38
2018-04-20T07:39:00.116Z,18.41
2018-04-20T07:40:00.058Z,18.49
2018-04-20T07:41:00.023Z,18.53
2018-04-20T07:41:59.980Z,18.49
2018-04-20T07:42:59.946Z,18.50
2018-04-20T07:43:59.878Z,18.50
2018-04-20T07:44:59.838Z,18.53
2018-04-20T07:45:59.823Z,18.41
2018-04-20T07:46:59.758Z,18.25
2018-04-20T07:47:59.692Z,18.33
2018-04-20T07:48:59.685Z,18.38
2018-04-20T07:49:59.612Z,18.33
2018-04-20T07:50:59.593Z,18.55
2018-04-20T07:51:59.521Z,18.50
2018-04-20T07:52:59.479Z,18.60
2018-04-20T07:53:59.431Z,18.52
2018-04-20T07:54:59.382Z,18.59
2018-04-20T07:55:59.873Z,18.49
2018-04-20T07:56:59.291Z,18.43
2018-04-20T07:57:59.239Z,18.37
2018-04-20T07:58:59.196Z,18.37
2018-04-20T07:59:59.184Z,18.43
2018-04-20T08:00:59.114Z,18.44
2018-04-20T08:01:59.056Z,18.38
2018-04-20T08:02:59.047Z,18.41
2018-04-20T08:03:58.957Z,18.58
2018-04-20T08:04:58.940Z,18.60
2018-04-20T08:05:58.907Z,18.50
2018-04-20T08:06:58.849Z,18.45
2018-04-20T08:07:58.793Z,18.58
2018-04-20T08:08:58.756Z,18.53
2018-04-20T08:09:58.703Z,18.40
2018-04-20T08:10:58.685Z,18.28
2018-04-20T08:11:58.613Z,18.15
2018-04-20T08:12:58.592Z,18.23
2018-04-20T08:13:58.516Z,18.15
2018-04-20T08:14:58.469Z,18.16
2018-04-20T08:15:58.451Z,18.19
2018-04-20T08:16:58.365Z,18.15
2018-04-20T08:17:58.340Z,18.13
2018-04-20T08:18:58.298Z,18.19
2018-04-20T08:19:58.240Z,18.29
2018-04-20T08:20:58.206Z,18.34
2018-04-20T08:21:58.157Z,18.18
2018-04-20T08:22:58.102Z,18.26
2018-04-20T08:23:58.058Z,18.10
2018-04-20T08:24:58.017Z,18.19
2018-04-20T08:25:57.952Z,18.18
2018-04-20T08:26:57.912Z,18.26
2018-04-20T08:27:57.882Z,18.13
2018-04-20T08:28:57.815Z,18.26
2018-04-20T08:29:57.782Z,18.19
2018-04-20T08:30:57.749Z,18.25
2018-04-20T08:31:57.679Z,18.37
2018-04-20T08:32:57.662Z,18.26
2018-04-20T08:33:57.599Z,18.20
2018-04-20T08:34:57.590Z,18.19
2018-04-20T08:35:57.516Z,18.22
2018-04-20T08:36:57.448Z,18.34
2018-04-20T08:37:57.410Z,18.31
2018-04-20T08:38:57.397Z,18.45
2018-04-20T08:39:57.328Z,18.29
2018-04-20T08:40:57.307Z,18.34
2018-04-20T08:41:57.241Z,18.29
2018-04-20T08:42:57.204Z,18.28
2018-04-20T08:43:57.134Z,18.45
2018-04-20T08:44:57.108Z,18.34
2018-04-20T08:45:57.053Z,18.38
2018-04-20T08:46:57.015Z,18.33
2018-04-20T08:47:56.947Z,18.37
2018-04-20T08:48:56.910Z,18.23
2018-04-20T08:49:56.868Z,18.23
2018-04-20T08:50:56.848Z,18.15
2018-04-20T08:51:56.787Z,18.11
2018-04-20T08:52:56.745Z,18.20
2018-04-20T08:53:56.699Z,18.18
2018-04-20T08:54:56.664Z,18.22
2018-04-20T08:55:56.598Z,18.18
2018-04-20T08:56:56.595Z,18.10
2018-04-20T08:57:56.511Z,18.15
2018-04-20T08:58:56.441Z,18.04
2018-04-20T08:59:56.393Z,18.00
2018-04-20T09:00:56.364Z,17.97
2018-04-20T09:01:56.332Z,17.98
2018-04-20T09:02:56.258Z,17.94
2018-04-20T09:03:56.258Z,18.05
2018-04-20T09:04:56.179Z,18.11
2018-04-20T09:05:56.146Z,18.13
2018-04-20T09:06:56.100Z,18.08
2018-04-20T09:07:56.051Z,18.13
2018-04-20T09:08:56.009Z,18.22
2018-04-20T09:09:55.950Z,18.19
2018-04-20T09:10:55.896Z,18.16
2018-04-20T09:11:55.845Z,18.16
2018-04-20T09:12:55.820Z,18.11
2018-04-20T09:13:55.781Z,18.04
2018-04-20T09:14:55.862Z,18.10
2018-04-20T09:15:55.679Z,18.03
2018-04-20T09:16:55.622Z,18.23
2018-04-20T09:17:55.596Z,18.20
2018-04-20T09:18:55.538Z,18.37
2018-04-20T09:19:55.497Z,18.37
2018-04-20T09:20:55.429Z,18.44
2018-04-20T09:21:55.405Z,18.34
2018-04-20T09:22:55.370Z,18.31
2018-04-20T09:23:55.294Z,18.35
2018-04-20T09:24:55.289Z,18.31
2018-04-20T09:25:55.219Z,18.19
2018-04-20T09:26:55.186Z,18.31
2018-04-20T09:27:55.109Z,18.23
2018-04-20T09:28:55.091Z,18.08
2018-04-20T09:29:55.052Z,18.05
2018-04-20T09:30:54.972Z,18.07
2018-04-20T09:31:54.954Z,17.97
2018-04-20T09:32:54.896Z,18.05
2018-04-20T09:33:54.856Z,17.89
2018-04-20T09:34:54.827Z,17.86
2018-04-20T09:35:54.758Z,17.83
2018-04-20T09:36:54.712Z,17.87
2018-04-20T09:37:54.673Z,17.90
2018-04-20T09:38:54.607Z,17.86
2018-04-20T09:39:54.601Z,17.85
2018-04-20T09:40:54.556Z,17.87
2018-04-20T09:41:54.500Z,17.72
2018-04-20T09:42:54.956Z,17.71
2018-04-20T09:43:54.401Z,17.72
2018-04-20T09:44:54.361Z,17.67
2018-04-20T09:45:54.299Z,17.67
2018-04-20T09:46:54.251Z,17.64
2018-04-20T09:47:54.210Z,17.65
2018-04-20T09:48:54.178Z,17.52
2018-04-20T09:49:54.118Z,17.64
2018-04-20T09:50:54.072Z,17.71
2018-04-20T09:51:54.039Z,17.74
2018-04-20T09:52:53.985Z,17.70
2018-04-20T09:53:53.944Z,17.70
2018-04-20T09:54:53.924Z,17.74
2018-04-20T09:55:53.847Z,17.80
2018-04-20T09:56:53.789Z,17.85
2018-04-20T09:57:53.750Z,17.74
2018-04-20T09:58:53.709Z,17.74
2018-04-20T09:59:53.671Z,17.71
2018-04-20T10:00:53.627Z,17.79
2018-04-20T10:01:53.570Z,17.83
2018-04-20T10:02:53.521Z,17.85
2018-04-20T10:03:53.500Z,17.86
2018-04-20T10:04:53.444Z,17.85
2018-04-20T10:05:53.396Z,17.86
2018-04-20T10:06:53.333Z,17.95
2018-04-20T10:07:53.356Z,17.95
2018-04-20T10:08:53.246Z,18.03
2018-04-20T10:09:53.209Z,17.95
2018-04-20T10:10:53.155Z,17.94
2018-04-20T10:11:53.117Z,18.04
2018-04-20T10:12:53.156Z,18.07
2018-04-20T10:13:53.048Z,18.10
2018-04-20T10:14:53.550Z,18.13
2018-04-20T10:15:52.927Z,18.18
2018-04-20T10:16:52.869Z,18.35
2018-04-20T10:17:52.834Z,18.31
2018-04-20T10:18:52.807Z,18.47
2018-04-20T10:19:52.752Z,18.49
2018-04-20T10:20:52.694Z,18.56
2018-04-20T10:21:52.670Z,18.59
2018-04-20T10:22:52.613Z,18.75
2018-04-20T10:23:52.588Z,18.75
2018-04-20T10:24:52.538Z,18.77
2018-04-20T10:25:52.486Z,18.80
2018-04-20T10:26:52.453Z,18.83
2018-04-20T10:27:52.389Z,18.81
2018-04-20T10:28:52.378Z,18.90
2018-04-20T10:29:52.313Z,19.09
2018-04-20T10:30:52.280Z,19.29
2018-04-20T10:31:52.241Z,19.51
2018-04-20T10:32:52.181Z,19.73
2018-04-20T10:33:52.141Z,19.95
2018-04-20T10:34:52.108Z,20.02
2018-04-20T10:35:52.076Z,20.16
2018-04-20T10:36:51.997Z,20.24
2018-04-20T10:37:51.997Z,20.34
2018-04-20T10:38:51.959Z,20.51
2018-04-20T10:39:51.911Z,20.60
2018-04-20T10:40:51.865Z,20.70
2018-04-20T10:41:51.840Z,20.75
2018-04-20T10:42:51.779Z,20.95
2018-04-20T10:43:51.759Z,21.06
2018-04-20T10:44:51.702Z,21.18
2018-04-20T10:45:51.657Z,21.14
2018-04-20T10:46:51.619Z,21.33
2018-04-20T10:47:51.619Z,21.42
2018-04-20T10:48:51.544Z,21.55
2018-04-20T10:49:51.521Z,21.77
2018-04-20T10:50:51.485Z,21.89
2018-04-20T10:51:51.422Z,22.18
2018-04-20T10:52:51.407Z,22.33
2018-04-20T10:53:51.382Z,22.48
2018-04-20T10:54:51.325Z,22.62
2018-04-20T10:55:51.280Z,22.59
2018-04-20T10:56:51.288Z,22.66
2018-04-20T10:57:51.251Z,22.76
2018-04-20T10:58:51.201Z,22.51
2018-04-20T10:59:51.156Z,22.65
2018-04-20T11:00:51.107Z,22.62
2018-04-20T11:01:51.116Z,22.88
2018-04-20T11:02:51.046Z,22.87
2018-04-20T11:03:51.018Z,22.69
2018-04-20T11:04:50.975Z,22.87
2018-04-20T11:05:50.951Z,22.85
2018-04-20T11:06:50.899Z,22.78
2018-04-20T11:07:50.874Z,22.88
2018-04-20T11:08:50.822Z,22.70
2018-04-20T11:09:50.790Z,22.68
2018-04-20T11:10:50.760Z,22.51
2018-04-20T11:11:50.719Z,22.50
2018-04-20T11:12:50.672Z,22.53
2018-04-20T11:13:50.620Z,22.39
2018-04-20T11:14:50.583Z,22.38
2018-04-20T11:15:50.545Z,22.36
2018-04-20T11:16:50.519Z,22.38
2018-04-20T11:17:50.458Z,22.35
2018-04-20T11:18:50.417Z,22.36
2018-04-20T11:19:50.384Z,22.33
2018-04-20T11:20:50.354Z,22.26
2018-04-20T11:21:50.820Z,22.32
2018-04-20T11:22:50.259Z,22.26
2018-04-20T11:23:50.242Z,22.23
2018-04-20T11:24:50.187Z,22.15
2018-04-20T11:25:50.140Z,22.23
2018-04-20T11:26:50.117Z,22.13
2018-04-20T11:27:50.065Z,22.02
2018-04-20T11:28:50.005Z,22.04
2018-04-20T11:29:49.975Z,22.00
2018-04-20T11:30:49.935Z,22.07
2018-04-20T11:31:49.880Z,22.00
2018-04-20T11:32:49.851Z,21.85
2018-04-20T11:33:49.819Z,21.93
2018-04-20T11:34:49.735Z,21.85
2018-04-20T11:35:49.737Z,21.93
2018-04-20T11:36:49.650Z,21.76
2018-04-20T11:37:49.624Z,21.77
2018-04-20T11:38:49.583Z,21.79
2018-04-20T11:39:49.540Z,21.64
2018-04-20T11:40:49.491Z,21.62
2018-04-20T11:41:49.439Z,21.72
2018-04-20T11:42:49.401Z,21.69
2018-04-20T11:43:49.361Z,21.73
2018-04-20T11:44:49.311Z,21.88
2018-04-20T11:45:49.290Z,21.79
2018-04-20T11:46:49.247Z,22.08
2018-04-20T11:47:49.182Z,22.11
2018-04-20T11:48:49.148Z,22.14
2018-04-20T11:49:49.110Z,22.08
2018-04-20T11:50:49.081Z,22.17
2018-04-20T11:51:49.026Z,22.28
2018-04-20T11:52:49.008Z,22.22
2018-04-20T11:53:49.560Z,22.22
2018-04-20T11:54:48.919Z,22.32
2018-04-20T11:55:48.857Z,22.15
2018-04-20T11:56:48.810Z,22.22
2018-04-20T11:57:48.774Z,22.26
2018-04-20T11:58:48.709Z,22.23
2018-04-20T11:59:48.699Z,22.23
2018-04-20T12:00:48.638Z,22.28
2018-04-20T12:01:48.588Z,22.26
2018-04-20T12:02:48.590Z,22.25
2018-04-20T12:03:48.505Z,22.26
2018-04-20T12:04:48.503Z,22.39
2018-04-20T12:05:48.421Z,22.39
2018-04-20T12:06:48.391Z,22.38
2018-04-20T12:07:48.347Z,22.36
2018-04-20T12:08:48.276Z,22.41
2018-04-20T12:09:48.264Z,22.48
2018-04-20T12:10:48.205Z,22.45
2018-04-20T12:11:48.181Z,22.44
2018-04-20T12:12:48.136Z,22.41
2018-04-20T12:13:48.112Z,22.39
2018-04-20T12:14:48.050Z,22.41
2018-04-20T12:15:47.994Z,22.62
2018-04-20T12:16:47.943Z,22.69
2018-04-20T12:17:47.910Z,22.76
2018-04-20T12:18:47.866Z,22.69
2018-04-20T12:19:47.823Z,22.72
2018-04-20T12:20:47.780Z,22.80
2018-04-20T12:21:47.736Z,22.78
2018-04-20T12:22:47.691Z,22.76
2018-04-20T12:23:47.678Z,22.75
2018-04-20T12:24:47.615Z,22.73
2018-04-20T12:25:48.121Z,22.69
2018-04-20T12:26:47.543Z,22.69
2018-04-20T12:27:47.516Z,22.73
2018-04-20T12:28:47.465Z,22.75
2018-04-20T12:29:47.391Z,22.62
2018-04-20T12:30:47.350Z,22.85
2018-04-20T12:31:47.314Z,22.87
2018-04-20T12:32:47.278Z,22.90
2018-04-20T12:33:47.275Z,22.88
2018-04-20T12:34:47.199Z,23.03
2018-04-20T12:35:47.151Z,23.10
2018-04-20T12:36:47.107Z,23.10
2018-04-20T12:37:47.057Z,23.15
2018-04-20T12:38:47.023Z,23.10
2018-04-20T12:39:46.966Z,23.17
2018-04-20T12:40:46.925Z,23.20
2018-04-20T12:41:46.893Z,23.27
2018-04-20T12:42:46.843Z,23.24
2018-04-20T12:43:46.782Z,23.24
2018-04-20T12:44:46.741Z,23.21
2018-04-20T12:45:46.706Z,23.39
2018-04-20T12:46:46.673Z,23.50
2018-04-20T12:47:46.615Z,23.37
2018-04-20T12:48:46.581Z,23.32
2018-04-20T12:49:46.534Z,23.46
2018-04-20T12:50:46.497Z,23.28
2018-04-20T12:51:46.460Z,23.25